sensor_id;sensor_type;location;lat;lon;timestamp;temperature;humidity
48752;DHT22;34544;48.836;9.174;2023-12-28T00:00:46;5.60;99.90
48752;DHT22;34544;48.836;9.174;2023-12-28T00:03:13;5.70;99.90
48752;DHT22;34544;48.836;9.174;2023-12-28T00:05:39;5.80;99.90
48752;DHT22;34544;48.836;9.174;2023-12-28T00:08:05;5.90;99.90
48752;DHT22;34544;48.836;9.174;2023-12-28T00:10:30;6.00;99.90
48752;DHT22;34544;48.836;9.174;2023-12-28T00:12:56;6.10;99.90
48752;DHT22;34544;48.836;9.174;2023-12-28T00:15:22;6.30;99.90
48752;DHT22;34544;48.836;9.174;2023-12-28T00:17:48;6.30;99.90
48752;DHT22;34544;48.836;9.174;2023-12-28T00:20:14;6.40;99.90
48752;DHT22;34544;48.836;9.174;2023-12-28T00:22:39;6.50;99.90
48752;DHT22;34544;48.836;9.174;2023-12-28T00:25:06;6.60;99.90
48752;DHT22;34544;48.836;9.174;2023-12-28T00:27:32;6.80;99.90
48752;DHT22;34544;48.836;9.174;2023-12-28T00:30:00;6.80;99.90
48752;DHT22;34544;48.836;9.174;2023-12-28T00:32:25;6.90;99.90
48752;DHT22;34544;48.836;9.174;2023-12-28T00:34:51;6.90;99.90
48752;DHT22;34544;48.836;9.174;2023-12-28T00:37:17;6.90;99.90
48752;DHT22;34544;48.836;9.174;2023-12-28T00:39:42;6.90;99.90
48752;DHT22;34544;48.836;9.174;2023-12-28T00:42:08;6.90;99.90
48752;DHT22;34544;48.836;9.174;2023-12-28T00:44:34;6.90;99.90
48752;DHT22;34544;48.836;9.174;2023-12-28T00:47:00;6.90;99.90
48752;DHT22;34544;48.836;9.174;2023-12-28T00:49:26;7.00;99.90
48752;DHT22;34544;48.836;9.174;2023-12-28T00:51:51;7.10;99.90
48752;DHT22;34544;48.836;9.174;2023-12-28T00:54:17;7.20;99.90
48752;DHT22;34544;48.836;9.174;2023-12-28T00:56:42;7.30;99.90
48752;DHT22;34544;48.836;9.174;2023-12-28T00:59:08;7.40;99.90
48752;DHT22;34544;48.836;9.174;2023-12-28T01:01:34;7.50;99.90
48752;DHT22;34544;48.836;9.174;2023-12-28T01:03:59;7.70;99.90
48752;DHT22;34544;48.836;9.174;2023-12-28T01:06:25;7.70;99.90
48752;DHT22;34544;48.836;9.174;2023-12-28T01:08:54;7.80;99.90
48752;DHT22;34544;48.836;9.174;2023-12-28T01:11:20;7.90;99.90
48752;DHT22;34544;48.836;9.174;2023-12-28T01:13:46;8.00;99.90
48752;DHT22;34544;48.836;9.174;2023-12-28T01:16:13;8.10;99.90
48752;DHT22;34544;48.836;9.174;2023-12-28T01:18:38;8.20;99.90
48752;DHT22;34544;48.836;9.174;2023-12-28T01:21:05;8.30;99.90
48752;DHT22;34544;48.836;9.174;2023-12-28T01:23:31;8.30;99.90
48752;DHT22;34544;48.836;9.174;2023-12-28T01:25:57;8.40;99.90
48752;DHT22;34544;48.836;9.174;2023-12-28T01:28:23;8.40;99.90
48752;DHT22;34544;48.836;9.174;2023-12-28T01:30:49;8.50;99.90
48752;DHT22;34544;48.836;9.174;2023-12-28T01:33:15;8.50;99.90
48752;DHT22;34544;48.836;9.174;2023-12-28T01:35:41;8.50;99.90
48752;DHT22;34544;48.836;9.174;2023-12-28T01:38:08;8.50;99.90
48752;DHT22;34544;48.836;9.174;2023-12-28T01:40:34;8.40;99.90
48752;DHT22;34544;48.836;9.174;2023-12-28T01:43:00;8.40;99.90
48752;DHT22;34544;48.836;9.174;2023-12-28T01:45:26;8.40;99.90
48752;DHT22;34544;48.836;9.174;2023-12-28T01:47:57;8.30;99.90
48752;DHT22;34544;48.836;9.174;2023-12-28T01:50:24;8.30;99.90
48752;DHT22;34544;48.836;9.174;2023-12-28T01:52:50;8.30;99.90
48752;DHT22;34544;48.836;9.174;2023-12-28T01:55:17;8.20;99.90
48752;DHT22;34544;48.836;9.174;2023-12-28T01:57:44;8.20;99.90
48752;DHT22;34544;48.836;9.174;2023-12-28T02:00:11;8.20;99.90
48752;DHT22;34544;48.836;9.174;2023-12-28T02:02:41;8.20;99.90
48752;DHT22;34544;48.836;9.174;2023-12-28T02:05:09;8.10;99.90
48752;DHT22;34544;48.836;9.174;2023-12-28T02:07:36;8.10;99.90
48752;DHT22;34544;48.836;9.174;2023-12-28T02:10:03;8.00;99.90
48752;DHT22;34544;48.836;9.174;2023-12-28T02:12:28;8.00;99.90
48752;DHT22;34544;48.836;9.174;2023-12-28T02:14:54;7.90;99.90
48752;DHT22;34544;48.836;9.174;2023-12-28T02:17:26;7.90;99.90
48752;DHT22;34544;48.836;9.174;2023-12-28T02:19:56;7.80;99.90
48752;DHT22;34544;48.836;9.174;2023-12-28T02:22:25;7.80;99.90
48752;DHT22;34544;48.836;9.174;2023-12-28T02:25:05;7.80;99.90
48752;DHT22;34544;48.836;9.174;2023-12-28T02:27:33;7.80;99.90
48752;DHT22;34544;48.836;9.174;2023-12-28T02:29:59;7.80;99.90
48752;DHT22;34544;48.836;9.174;2023-12-28T02:32:36;7.80;99.90
48752;DHT22;34544;48.836;9.174;2023-12-28T02:35:10;7.70;99.90
48752;DHT22;34544;48.836;9.174;2023-12-28T02:37:38;7.60;99.90
48752;DHT22;34544;48.836;9.174;2023-12-28T02:40:05;7.60;99.90
48752;DHT22;34544;48.836;9.174;2023-12-28T02:42:32;7.50;99.90
48752;DHT22;34544;48.836;9.174;2023-12-28T02:44:57;7.50;99.90
48752;DHT22;34544;48.836;9.174;2023-12-28T02:47:24;7.40;99.90
48752;DHT22;34544;48.836;9.174;2023-12-28T02:49:49;7.40;99.90
48752;DHT22;34544;48.836;9.174;2023-12-28T02:52:15;7.40;99.90
48752;DHT22;34544;48.836;9.174;2023-12-28T02:54:41;7.40;99.90
48752;DHT22;34544;48.836;9.174;2023-12-28T02:57:07;7.40;99.90
48752;DHT22;34544;48.836;9.174;2023-12-28T02:59:33;7.30;99.90
48752;DHT22;34544;48.836;9.174;2023-12-28T03:01:59;7.40;99.90
48752;DHT22;34544;48.836;9.174;2023-12-28T03:04:25;7.40;99.90
48752;DHT22;34544;48.836;9.174;2023-12-28T03:06:51;7.40;99.90
48752;DHT22;34544;48.836;9.174;2023-12-28T03:09:17;7.40;99.90
48752;DHT22;34544;48.836;9.174;2023-12-28T03:11:43;7.40;99.90
48752;DHT22;34544;48.836;9.174;2023-12-28T03:14:09;7.40;99.90
48752;DHT22;34544;48.836;9.174;2023-12-28T03:16:35;7.40;99.90
48752;DHT22;34544;48.836;9.174;2023-12-28T03:19:00;7.40;99.90
48752;DHT22;34544;48.836;9.174;2023-12-28T03:21:26;7.50;99.90
48752;DHT22;34544;48.836;9.174;2023-12-28T03:23:53;7.40;99.90
48752;DHT22;34544;48.836;9.174;2023-12-28T03:26:19;7.40;99.90
48752;DHT22;34544;48.836;9.174;2023-12-28T03:28:45;7.40;99.90
48752;DHT22;34544;48.836;9.174;2023-12-28T03:31:13;7.40;99.90
48752;DHT22;34544;48.836;9.174;2023-12-28T03:33:38;7.40;99.90
48752;DHT22;34544;48.836;9.174;2023-12-28T03:36:04;7.50;99.90
48752;DHT22;34544;48.836;9.174;2023-12-28T03:38:30;7.50;99.90
48752;DHT22;34544;48.836;9.174;2023-12-28T03:40:56;7.50;99.90
48752;DHT22;34544;48.836;9.174;2023-12-28T03:43:21;7.50;99.90
48752;DHT22;34544;48.836;9.174;2023-12-28T03:45:47;7.60;99.90
48752;DHT22;34544;48.836;9.174;2023-12-28T03:48:13;7.60;99.90
48752;DHT22;34544;48.836;9.174;2023-12-28T03:50:38;7.70;99.90
48752;DHT22;34544;48.836;9.174;2023-12-28T03:53:04;7.80;99.90
48752;DHT22;34544;48.836;9.174;2023-12-28T03:55:30;7.90;99.90
48752;DHT22;34544;48.836;9.174;2023-12-28T03:57:57;8.00;99.90
48752;DHT22;34544;48.836;9.174;2023-12-28T04:00:23;8.00;99.90
48752;DHT22;34544;48.836;9.174;2023-12-28T04:02:50;8.20;99.90
48752;DHT22;34544;48.836;9.174;2023-12-28T04:05:16;8.30;99.90
48752;DHT22;34544;48.836;9.174;2023-12-28T04:07:42;8.40;99.90
48752;DHT22;34544;48.836;9.174;2023-12-28T04:10:09;8.50;99.90
48752;DHT22;34544;48.836;9.174;2023-12-28T04:12:36;8.50;99.90
48752;DHT22;34544;48.836;9.174;2023-12-28T04:15:03;8.60;99.90
48752;DHT22;34544;48.836;9.174;2023-12-28T04:17:28;8.60;99.90
48752;DHT22;34544;48.836;9.174;2023-12-28T04:19:54;8.70;99.90
48752;DHT22;34544;48.836;9.174;2023-12-28T04:22:20;8.70;99.90
48752;DHT22;34544;48.836;9.174;2023-12-28T04:24:46;8.80;99.90
48752;DHT22;34544;48.836;9.174;2023-12-28T04:27:12;8.90;99.90
48752;DHT22;34544;48.836;9.174;2023-12-28T04:29:38;9.00;99.90
48752;DHT22;34544;48.836;9.174;2023-12-28T04:32:04;9.00;99.90
48752;DHT22;34544;48.836;9.174;2023-12-28T04:34:30;9.00;99.90
48752;DHT22;34544;48.836;9.174;2023-12-28T04:36:56;9.00;99.90
48752;DHT22;34544;48.836;9.174;2023-12-28T04:39:21;9.00;99.90
48752;DHT22;34544;48.836;9.174;2023-12-28T04:41:47;9.10;99.90
48752;DHT22;34544;48.836;9.174;2023-12-28T04:44:13;9.20;99.90
48752;DHT22;34544;48.836;9.174;2023-12-28T04:46:39;9.20;99.90
48752;DHT22;34544;48.836;9.174;2023-12-28T04:49:10;9.30;99.90
48752;DHT22;34544;48.836;9.174;2023-12-28T04:51:42;9.30;99.90
48752;DHT22;34544;48.836;9.174;2023-12-28T04:54:08;9.30;99.90
48752;DHT22;34544;48.836;9.174;2023-12-28T04:56:34;9.30;99.90
48752;DHT22;34544;48.836;9.174;2023-12-28T04:59:00;9.30;99.90
48752;DHT22;34544;48.836;9.174;2023-12-28T05:01:26;9.30;99.90
48752;DHT22;34544;48.836;9.174;2023-12-28T05:03:51;9.30;99.90
48752;DHT22;34544;48.836;9.174;2023-12-28T05:06:20;9.20;99.90
48752;DHT22;34544;48.836;9.174;2023-12-28T05:08:45;9.30;99.90
48752;DHT22;34544;48.836;9.174;2023-12-28T05:11:11;9.30;99.90
48752;DHT22;34544;48.836;9.174;2023-12-28T05:13:38;9.30;99.90
48752;DHT22;34544;48.836;9.174;2023-12-28T05:16:04;9.30;99.90
48752;DHT22;34544;48.836;9.174;2023-12-28T05:18:29;9.30;99.90
48752;DHT22;34544;48.836;9.174;2023-12-28T05:20:55;9.40;99.90
48752;DHT22;34544;48.836;9.174;2023-12-28T05:23:20;9.30;99.90
48752;DHT22;34544;48.836;9.174;2023-12-28T05:25:46;9.30;99.90
48752;DHT22;34544;48.836;9.174;2023-12-28T05:28:12;9.30;99.90
48752;DHT22;34544;48.836;9.174;2023-12-28T05:30:38;9.20;99.90
48752;DHT22;34544;48.836;9.174;2023-12-28T05:33:04;9.20;99.90
48752;DHT22;34544;48.836;9.174;2023-12-28T05:35:30;9.20;99.90
48752;DHT22;34544;48.836;9.174;2023-12-28T05:37:55;9.10;99.90
48752;DHT22;34544;48.836;9.174;2023-12-28T05:40:21;9.10;99.90
48752;DHT22;34544;48.836;9.174;2023-12-28T05:42:47;9.10;99.90
48752;DHT22;34544;48.836;9.174;2023-12-28T05:45:13;9.20;99.90
48752;DHT22;34544;48.836;9.174;2023-12-28T05:47:38;9.10;99.90
48752;DHT22;34544;48.836;9.174;2023-12-28T05:50:04;9.10;99.90
48752;DHT22;34544;48.836;9.174;2023-12-28T05:52:31;9.10;99.90
48752;DHT22;34544;48.836;9.174;2023-12-28T05:54:56;9.20;99.90
48752;DHT22;34544;48.836;9.174;2023-12-28T05:57:22;9.20;99.90
48752;DHT22;34544;48.836;9.174;2023-12-28T05:59:48;9.20;99.90
48752;DHT22;34544;48.836;9.174;2023-12-28T06:02:14;9.30;99.90
48752;DHT22;34544;48.836;9.174;2023-12-28T06:04:39;9.30;99.90
48752;DHT22;34544;48.836;9.174;2023-12-28T06:07:05;9.30;99.90
48752;DHT22;34544;48.836;9.174;2023-12-28T06:09:31;9.30;99.90
48752;DHT22;34544;48.836;9.174;2023-12-28T06:11:57;9.40;99.90
48752;DHT22;34544;48.836;9.174;2023-12-28T06:14:22;9.40;99.90
48752;DHT22;34544;48.836;9.174;2023-12-28T06:16:48;9.40;99.90
48752;DHT22;34544;48.836;9.174;2023-12-28T06:19:14;9.40;99.90
48752;DHT22;34544;48.836;9.174;2023-12-28T06:21:40;9.30;99.90
48752;DHT22;34544;48.836;9.174;2023-12-28T06:24:07;9.40;99.90
48752;DHT22;34544;48.836;9.174;2023-12-28T06:26:33;9.30;99.90
48752;DHT22;34544;48.836;9.174;2023-12-28T06:28:59;9.30;99.90
48752;DHT22;34544;48.836;9.174;2023-12-28T06:31:25;9.30;99.90
48752;DHT22;34544;48.836;9.174;2023-12-28T06:33:51;9.40;99.90
48752;DHT22;34544;48.836;9.174;2023-12-28T06:36:17;9.30;99.90
48752;DHT22;34544;48.836;9.174;2023-12-28T06:38:44;9.30;99.90
48752;DHT22;34544;48.836;9.174;2023-12-28T06:41:13;9.40;99.90
48752;DHT22;34544;48.836;9.174;2023-12-28T06:43:39;9.30;99.90
48752;DHT22;34544;48.836;9.174;2023-12-28T06:46:04;9.30;99.90
48752;DHT22;34544;48.836;9.174;2023-12-28T06:48:30;9.40;99.90
48752;DHT22;34544;48.836;9.174;2023-12-28T06:50:56;9.30;99.90
48752;DHT22;34544;48.836;9.174;2023-12-28T06:53:22;9.30;99.90
48752;DHT22;34544;48.836;9.174;2023-12-28T06:55:48;9.30;99.90
48752;DHT22;34544;48.836;9.174;2023-12-28T06:58:13;9.30;99.90
48752;DHT22;34544;48.836;9.174;2023-12-28T07:00:39;9.40;99.90
48752;DHT22;34544;48.836;9.174;2023-12-28T07:03:07;9.40;99.90
48752;DHT22;34544;48.836;9.174;2023-12-28T07:05:33;9.40;99.90
48752;DHT22;34544;48.836;9.174;2023-12-28T07:07:59;9.40;99.90
48752;DHT22;34544;48.836;9.174;2023-12-28T07:10:25;9.30;99.90
48752;DHT22;34544;48.836;9.174;2023-12-28T07:12:51;9.30;99.90
48752;DHT22;34544;48.836;9.174;2023-12-28T07:15:16;9.30;99.90
48752;DHT22;34544;48.836;9.174;2023-12-28T07:17:42;9.30;99.90
48752;DHT22;34544;48.836;9.174;2023-12-28T07:20:09;9.20;99.90
48752;DHT22;34544;48.836;9.174;2023-12-28T07:22:38;9.20;99.90
48752;DHT22;34544;48.836;9.174;2023-12-28T07:25:07;9.20;99.90
48752;DHT22;34544;48.836;9.174;2023-12-28T07:27:34;9.20;99.90
48752;DHT22;34544;48.836;9.174;2023-12-28T07:30:00;9.10;99.90
48752;DHT22;34544;48.836;9.174;2023-12-28T07:32:26;9.10;99.90
48752;DHT22;34544;48.836;9.174;2023-12-28T07:34:54;9.00;99.90
48752;DHT22;34544;48.836;9.174;2023-12-28T07:37:20;9.00;99.90
48752;DHT22;34544;48.836;9.174;2023-12-28T07:39:47;9.00;99.90
48752;DHT22;34544;48.836;9.174;2023-12-28T07:42:12;8.90;99.90
48752;DHT22;34544;48.836;9.174;2023-12-28T07:44:39;8.90;99.90
48752;DHT22;34544;48.836;9.174;2023-12-28T07:47:04;8.90;99.90
48752;DHT22;34544;48.836;9.174;2023-12-28T07:49:31;8.90;99.90
48752;DHT22;34544;48.836;9.174;2023-12-28T07:51:57;8.90;99.90
48752;DHT22;34544;48.836;9.174;2023-12-28T07:54:23;8.90;99.90
48752;DHT22;34544;48.836;9.174;2023-12-28T07:56:49;8.90;99.90
48752;DHT22;34544;48.836;9.174;2023-12-28T07:59:15;8.90;99.90
48752;DHT22;34544;48.836;9.174;2023-12-28T08:01:40;8.90;99.90
48752;DHT22;34544;48.836;9.174;2023-12-28T08:04:06;8.90;99.90
48752;DHT22;34544;48.836;9.174;2023-12-28T08:06:32;8.90;99.90
48752;DHT22;34544;48.836;9.174;2023-12-28T08:08:59;8.90;99.90
48752;DHT22;34544;48.836;9.174;2023-12-28T08:11:27;8.90;99.90
48752;DHT22;34544;48.836;9.174;2023-12-28T08:13:53;8.90;99.90
48752;DHT22;34544;48.836;9.174;2023-12-28T08:16:19;8.90;99.90
48752;DHT22;34544;48.836;9.174;2023-12-28T08:18:46;8.90;99.90
48752;DHT22;34544;48.836;9.174;2023-12-28T08:21:12;8.90;99.90
48752;DHT22;34544;48.836;9.174;2023-12-28T08:23:38;8.90;99.90
48752;DHT22;34544;48.836;9.174;2023-12-28T08:26:04;8.90;99.90
48752;DHT22;34544;48.836;9.174;2023-12-28T08:28:31;9.00;99.90
48752;DHT22;34544;48.836;9.174;2023-12-28T08:30:57;8.90;99.90
48752;DHT22;34544;48.836;9.174;2023-12-28T08:33:23;9.00;99.90
48752;DHT22;34544;48.836;9.174;2023-12-28T08:35:48;9.00;99.90
48752;DHT22;34544;48.836;9.174;2023-12-28T08:38:14;9.00;99.90
48752;DHT22;34544;48.836;9.174;2023-12-28T08:40:41;9.00;99.90
48752;DHT22;34544;48.836;9.174;2023-12-28T08:43:07;9.00;99.90
48752;DHT22;34544;48.836;9.174;2023-12-28T08:45:32;9.00;99.90
48752;DHT22;34544;48.836;9.174;2023-12-28T08:48:00;9.00;99.90
48752;DHT22;34544;48.836;9.174;2023-12-28T08:50:26;9.10;99.90
48752;DHT22;34544;48.836;9.174;2023-12-28T08:52:51;9.10;99.90
48752;DHT22;34544;48.836;9.174;2023-12-28T08:55:17;9.10;99.90
48752;DHT22;34544;48.836;9.174;2023-12-28T08:57:43;9.10;99.90
48752;DHT22;34544;48.836;9.174;2023-12-28T09:00:10;9.10;99.90
48752;DHT22;34544;48.836;9.174;2023-12-28T09:02:36;9.10;99.90
48752;DHT22;34544;48.836;9.174;2023-12-28T09:05:01;9.10;99.90
48752;DHT22;34544;48.836;9.174;2023-12-28T09:07:27;9.20;99.90
48752;DHT22;34544;48.836;9.174;2023-12-28T09:09:53;9.20;99.90
48752;DHT22;34544;48.836;9.174;2023-12-28T09:12:19;9.20;99.90
48752;DHT22;34544;48.836;9.174;2023-12-28T09:14:45;9.20;99.90
48752;DHT22;34544;48.836;9.174;2023-12-28T09:17:11;9.10;99.90
48752;DHT22;34544;48.836;9.174;2023-12-28T09:19:37;9.20;99.90
48752;DHT22;34544;48.836;9.174;2023-12-28T09:22:03;9.10;99.90
48752;DHT22;34544;48.836;9.174;2023-12-28T09:24:29;9.10;99.90
48752;DHT22;34544;48.836;9.174;2023-12-28T09:26:55;9.10;99.90
48752;DHT22;34544;48.836;9.174;2023-12-28T09:29:20;9.10;99.90
48752;DHT22;34544;48.836;9.174;2023-12-28T09:31:46;9.10;99.90
48752;DHT22;34544;48.836;9.174;2023-12-28T09:34:12;9.20;99.90
48752;DHT22;34544;48.836;9.174;2023-12-28T09:36:37;9.20;99.90
48752;DHT22;34544;48.836;9.174;2023-12-28T09:39:03;9.30;99.90
48752;DHT22;34544;48.836;9.174;2023-12-28T09:41:30;9.30;99.90
48752;DHT22;34544;48.836;9.174;2023-12-28T09:44:12;9.40;99.90
48752;DHT22;34544;48.836;9.174;2023-12-28T09:46:42;9.50;99.90
48752;DHT22;34544;48.836;9.174;2023-12-28T09:49:08;9.60;99.90
48752;DHT22;34544;48.836;9.174;2023-12-28T09:51:35;9.60;99.90
48752;DHT22;34544;48.836;9.174;2023-12-28T09:54:05;9.70;99.90
48752;DHT22;34544;48.836;9.174;2023-12-28T09:56:32;9.80;99.90
48752;DHT22;34544;48.836;9.174;2023-12-28T09:58:59;10.00;99.90
48752;DHT22;34544;48.836;9.174;2023-12-28T10:01:26;10.10;99.90
48752;DHT22;34544;48.836;9.174;2023-12-28T10:03:52;10.20;99.90
48752;DHT22;34544;48.836;9.174;2023-12-28T10:06:17;10.30;99.90
48752;DHT22;34544;48.836;9.174;2023-12-28T10:08:46;10.40;99.90
48752;DHT22;34544;48.836;9.174;2023-12-28T10:11:16;10.50;99.90
48752;DHT22;34544;48.836;9.174;2023-12-28T10:13:43;10.60;99.90
48752;DHT22;34544;48.836;9.174;2023-12-28T10:16:10;10.60;99.90
48752;DHT22;34544;48.836;9.174;2023-12-28T10:18:36;10.60;99.90
48752;DHT22;34544;48.836;9.174;2023-12-28T10:21:05;10.70;99.90
48752;DHT22;34544;48.836;9.174;2023-12-28T10:23:31;10.80;99.90
48752;DHT22;34544;48.836;9.174;2023-12-28T10:25:57;10.80;99.90
48752;DHT22;34544;48.836;9.174;2023-12-28T10:28:24;10.90;99.90
48752;DHT22;34544;48.836;9.174;2023-12-28T10:30:54;10.90;99.90
48752;DHT22;34544;48.836;9.174;2023-12-28T10:33:20;10.90;99.90
48752;DHT22;34544;48.836;9.174;2023-12-28T10:35:46;11.00;99.90
48752;DHT22;34544;48.836;9.174;2023-12-28T10:38:13;11.10;99.90
48752;DHT22;34544;48.836;9.174;2023-12-28T10:40:42;11.10;99.90
48752;DHT22;34544;48.836;9.174;2023-12-28T10:43:11;11.20;99.90
48752;DHT22;34544;48.836;9.174;2023-12-28T10:45:40;11.20;99.90
48752;DHT22;34544;48.836;9.174;2023-12-28T10:48:07;11.30;99.90
48752;DHT22;34544;48.836;9.174;2023-12-28T11:01:21;11.60;99.90
48752;DHT22;34544;48.836;9.174;2023-12-28T11:03:57;11.70;99.90
48752;DHT22;34544;48.836;9.174;2023-12-28T11:06:25;11.70;99.90
48752;DHT22;34544;48.836;9.174;2023-12-28T11:08:53;11.80;99.90
48752;DHT22;34544;48.836;9.174;2023-12-28T11:11:21;11.80;99.90
48752;DHT22;34544;48.836;9.174;2023-12-28T11:13:48;11.90;99.90
48752;DHT22;34544;48.836;9.174;2023-12-28T11:16:16;11.90;99.90
48752;DHT22;34544;48.836;9.174;2023-12-28T11:18:43;11.90;99.90
48752;DHT22;34544;48.836;9.174;2023-12-28T11:21:09;12.00;99.90
48752;DHT22;34544;48.836;9.174;2023-12-28T11:23:35;12.00;99.90
48752;DHT22;34544;48.836;9.174;2023-12-28T11:26:01;12.00;99.90
48752;DHT22;34544;48.836;9.174;2023-12-28T11:28:27;12.00;99.90
48752;DHT22;34544;48.836;9.174;2023-12-28T11:30:53;12.00;99.90
48752;DHT22;34544;48.836;9.174;2023-12-28T11:33:19;12.00;99.90
48752;DHT22;34544;48.836;9.174;2023-12-28T11:35:47;12.00;99.90
48752;DHT22;34544;48.836;9.174;2023-12-28T11:38:15;12.00;99.90
48752;DHT22;34544;48.836;9.174;2023-12-28T11:40:44;12.00;99.90
48752;DHT22;34544;48.836;9.174;2023-12-28T11:43:18;12.00;99.90
48752;DHT22;34544;48.836;9.174;2023-12-28T11:45:49;12.00;99.90
48752;DHT22;34544;48.836;9.174;2023-12-28T11:48:25;12.00;99.90
48752;DHT22;34544;48.836;9.174;2023-12-28T11:50:59;12.00;99.90
48752;DHT22;34544;48.836;9.174;2023-12-28T11:53:26;12.00;99.90
48752;DHT22;34544;48.836;9.174;2023-12-28T11:55:52;12.00;99.90
48752;DHT22;34544;48.836;9.174;2023-12-28T11:58:24;12.10;99.90
48752;DHT22;34544;48.836;9.174;2023-12-28T12:00:50;12.10;99.90
48752;DHT22;34544;48.836;9.174;2023-12-28T12:03:15;12.10;99.90
48752;DHT22;34544;48.836;9.174;2023-12-28T12:05:41;12.10;99.90
48752;DHT22;34544;48.836;9.174;2023-12-28T12:08:08;12.10;99.90
48752;DHT22;34544;48.836;9.174;2023-12-28T12:10:36;12.10;99.90
48752;DHT22;34544;48.836;9.174;2023-12-28T12:13:02;12.10;99.90
48752;DHT22;34544;48.836;9.174;2023-12-28T12:15:29;12.10;99.90
48752;DHT22;34544;48.836;9.174;2023-12-28T12:17:55;12.10;99.90
48752;DHT22;34544;48.836;9.174;2023-12-28T12:20:21;12.10;99.90
48752;DHT22;34544;48.836;9.174;2023-12-28T12:22:47;12.20;99.90
48752;DHT22;34544;48.836;9.174;2023-12-28T12:25:16;12.20;99.90
48752;DHT22;34544;48.836;9.174;2023-12-28T12:27:43;12.20;99.90
48752;DHT22;34544;48.836;9.174;2023-12-28T12:30:09;12.20;99.90
48752;DHT22;34544;48.836;9.174;2023-12-28T12:32:35;12.30;99.90
48752;DHT22;34544;48.836;9.174;2023-12-28T12:35:11;12.30;99.90
48752;DHT22;34544;48.836;9.174;2023-12-28T12:37:37;12.30;99.90
48752;DHT22;34544;48.836;9.174;2023-12-28T12:40:04;12.30;99.90
48752;DHT22;34544;48.836;9.174;2023-12-28T12:42:32;12.20;99.90
48752;DHT22;34544;48.836;9.174;2023-12-28T12:44:58;12.30;99.90
48752;DHT22;34544;48.836;9.174;2023-12-28T12:47:24;12.30;99.90
48752;DHT22;34544;48.836;9.174;2023-12-28T12:49:55;12.20;99.90
48752;DHT22;34544;48.836;9.174;2023-12-28T12:52:21;12.20;99.90
48752;DHT22;34544;48.836;9.174;2023-12-28T12:54:56;12.10;99.90
48752;DHT22;34544;48.836;9.174;2023-12-28T12:57:24;12.10;99.90
48752;DHT22;34544;48.836;9.174;2023-12-28T12:59:49;12.10;99.90
48752;DHT22;34544;48.836;9.174;2023-12-28T13:02:16;12.10;99.90
48752;DHT22;34544;48.836;9.174;2023-12-28T13:04:42;12.10;99.90
48752;DHT22;34544;48.836;9.174;2023-12-28T13:07:08;12.00;99.90
48752;DHT22;34544;48.836;9.174;2023-12-28T13:09:34;12.00;99.90
48752;DHT22;34544;48.836;9.174;2023-12-28T13:12:01;12.00;99.90
48752;DHT22;34544;48.836;9.174;2023-12-28T13:14:28;12.00;99.90
48752;DHT22;34544;48.836;9.174;2023-12-28T13:16:55;12.10;99.90
48752;DHT22;34544;48.836;9.174;2023-12-28T13:19:21;12.10;99.90
48752;DHT22;34544;48.836;9.174;2023-12-28T13:21:46;12.10;99.90
48752;DHT22;34544;48.836;9.174;2023-12-28T13:24:12;12.10;99.90
48752;DHT22;34544;48.836;9.174;2023-12-28T13:26:38;12.10;99.90
48752;DHT22;34544;48.836;9.174;2023-12-28T13:29:04;12.10;99.90
48752;DHT22;34544;48.836;9.174;2023-12-28T13:31:30;12.10;99.90
48752;DHT22;34544;48.836;9.174;2023-12-28T13:33:55;12.00;99.90
48752;DHT22;34544;48.836;9.174;2023-12-28T13:36:21;12.00;99.90
48752;DHT22;34544;48.836;9.174;2023-12-28T13:38:47;12.00;99.90
48752;DHT22;34544;48.836;9.174;2023-12-28T13:41:13;12.00;99.90
48752;DHT22;34544;48.836;9.174;2023-12-28T13:43:39;12.00;99.90
48752;DHT22;34544;48.836;9.174;2023-12-28T13:46:04;11.90;99.90
48752;DHT22;34544;48.836;9.174;2023-12-28T13:48:30;11.90;99.90
48752;DHT22;34544;48.836;9.174;2023-12-28T13:50:56;12.00;99.90
48752;DHT22;34544;48.836;9.174;2023-12-28T13:53:22;11.90;99.90
48752;DHT22;34544;48.836;9.174;2023-12-28T13:55:47;11.90;99.90
48752;DHT22;34544;48.836;9.174;2023-12-28T13:58:13;11.90;99.90
48752;DHT22;34544;48.836;9.174;2023-12-28T14:00:40;11.90;99.90
48752;DHT22;34544;48.836;9.174;2023-12-28T14:03:05;11.90;99.90
48752;DHT22;34544;48.836;9.174;2023-12-28T14:05:31;11.80;99.90
48752;DHT22;34544;48.836;9.174;2023-12-28T14:07:57;11.80;99.90
48752;DHT22;34544;48.836;9.174;2023-12-28T14:10:23;11.80;99.90
48752;DHT22;34544;48.836;9.174;2023-12-28T14:12:49;11.80;99.90
48752;DHT22;34544;48.836;9.174;2023-12-28T14:15:15;11.80;99.90
48752;DHT22;34544;48.836;9.174;2023-12-28T14:17:42;11.70;99.90
48752;DHT22;34544;48.836;9.174;2023-12-28T14:20:08;11.80;99.90
48752;DHT22;34544;48.836;9.174;2023-12-28T14:22:40;11.70;99.90
48752;DHT22;34544;48.836;9.174;2023-12-28T14:25:07;11.70;99.90
48752;DHT22;34544;48.836;9.174;2023-12-28T14:27:33;11.70;99.90
48752;DHT22;34544;48.836;9.174;2023-12-28T14:29:59;11.60;99.90
48752;DHT22;34544;48.836;9.174;2023-12-28T14:32:29;11.60;99.90
48752;DHT22;34544;48.836;9.174;2023-12-28T14:34:55;11.50;99.90
48752;DHT22;34544;48.836;9.174;2023-12-28T14:37:21;11.50;99.90
48752;DHT22;34544;48.836;9.174;2023-12-28T14:39:47;11.50;99.90
48752;DHT22;34544;48.836;9.174;2023-12-28T14:42:13;11.50;99.90
48752;DHT22;34544;48.836;9.174;2023-12-28T14:44:39;11.40;99.90
48752;DHT22;34544;48.836;9.174;2023-12-28T14:47:05;11.50;99.90
48752;DHT22;34544;48.836;9.174;2023-12-28T14:49:31;11.50;99.90
48752;DHT22;34544;48.836;9.174;2023-12-28T14:51:57;11.50;99.90
48752;DHT22;34544;48.836;9.174;2023-12-28T14:54:23;11.50;99.90
48752;DHT22;34544;48.836;9.174;2023-12-28T14:56:49;11.50;99.90
48752;DHT22;34544;48.836;9.174;2023-12-28T14:59:14;11.50;99.90
48752;DHT22;34544;48.836;9.174;2023-12-28T15:01:41;11.40;99.90
48752;DHT22;34544;48.836;9.174;2023-12-28T15:04:06;11.40;99.90
48752;DHT22;34544;48.836;9.174;2023-12-28T15:06:32;11.40;99.90
48752;DHT22;34544;48.836;9.174;2023-12-28T15:08:58;11.40;99.90
48752;DHT22;34544;48.836;9.174;2023-12-28T15:11:24;11.40;99.90
48752;DHT22;34544;48.836;9.174;2023-12-28T15:13:50;11.40;99.90
48752;DHT22;34544;48.836;9.174;2023-12-28T15:16:16;11.30;99.90
48752;DHT22;34544;48.836;9.174;2023-12-28T15:18:42;11.30;99.90
48752;DHT22;34544;48.836;9.174;2023-12-28T15:21:09;11.30;99.90
48752;DHT22;34544;48.836;9.174;2023-12-28T15:23:35;11.30;99.90
48752;DHT22;34544;48.836;9.174;2023-12-28T15:26:01;11.30;99.90
48752;DHT22;34544;48.836;9.174;2023-12-28T15:28:27;11.30;99.90
48752;DHT22;34544;48.836;9.174;2023-12-28T15:30:53;11.30;99.90
48752;DHT22;34544;48.836;9.174;2023-12-28T15:33:18;11.30;99.90
48752;DHT22;34544;48.836;9.174;2023-12-28T15:35:44;11.30;99.90
48752;DHT22;34544;48.836;9.174;2023-12-28T15:38:10;11.30;99.90
48752;DHT22;34544;48.836;9.174;2023-12-28T15:40:36;11.30;99.90
48752;DHT22;34544;48.836;9.174;2023-12-28T15:43:02;11.30;99.90
48752;DHT22;34544;48.836;9.174;2023-12-28T15:45:29;11.20;99.90